sensor_id;sensor_type;location;lat;lon;timestamp;P1;durP1;ratioP1;P2;durP2;ratioP2
26756;SDS011;23848;49.798;10.228;2024-03-07T00:01:28;20.95;;;11.23;;
26756;SDS011;23848;49.798;10.228;2024-03-07T00:03:56;20.48;;;10.95;;
26756;SDS011;23848;49.798;10.228;2024-03-07T00:06:24;21.55;;;10.88;;
26756;SDS011;23848;49.798;10.228;2024-03-07T00:08:52;19.40;;;11.10;;
26756;SDS011;23848;49.798;10.228;2024-03-07T00:11:21;17.48;;;10.38;;
26756;SDS011;23848;49.798;10.228;2024-03-07T00:13:52;19.55;;;11.50;;
26756;SDS011;23848;49.798;10.228;2024-03-07T00:16:22;17.70;;;10.30;;
26756;SDS011;23848;49.798;10.228;2024-03-07T00:18:50;20.05;;;10.63;;
26756;SDS011;23848;49.798;10.228;2024-03-07T00:21:18;19.00;;;10.77;;
26756;SDS011;23848;49.798;10.228;2024-03-07T00:23:46;19.45;;;11.32;;
26756;SDS011;23848;49.798;10.228;2024-03-07T00:26:15;20.58;;;10.93;;
26756;SDS011;23848;49.798;10.228;2024-03-07T00:28:43;21.55;;;11.10;;
26756;SDS011;23848;49.798;10.228;2024-03-07T00:31:11;22.65;;;11.82;;
26756;SDS011;23848;49.798;10.228;2024-03-07T00:33:41;22.42;;;12.32;;
26756;SDS011;23848;49.798;10.228;2024-03-07T00:36:29;20.75;;;11.52;;
26756;SDS011;23848;49.798;10.228;2024-03-07T00:38:58;19.92;;;11.13;;
26756;SDS011;23848;49.798;10.228;2024-03-07T00:41:26;21.02;;;11.40;;
26756;SDS011;23848;49.798;10.228;2024-03-07T00:43:55;21.33;;;11.98;;
26756;SDS011;23848;49.798;10.228;2024-03-07T00:46:23;17.90;;;9.88;;
26756;SDS011;23848;49.798;10.228;2024-03-07T00:48:53;17.25;;;10.85;;
26756;SDS011;23848;49.798;10.228;2024-03-07T00:51:21;22.10;;;11.15;;
26756;SDS011;23848;49.798;10.228;2024-03-07T00:53:50;20.67;;;11.40;;
26756;SDS011;23848;49.798;10.228;2024-03-07T00:56:18;20.45;;;10.82;;
26756;SDS011;23848;49.798;10.228;2024-03-07T00:58:47;21.35;;;11.02;;
26756;SDS011;23848;49.798;10.228;2024-03-07T01:01:16;19.45;;;10.32;;
26756;SDS011;23848;49.798;10.228;2024-03-07T01:03:45;20.30;;;11.52;;
26756;SDS011;23848;49.798;10.228;2024-03-07T01:06:14;23.95;;;12.30;;
26756;SDS011;23848;49.798;10.228;2024-03-07T01:08:43;21.73;;;11.13;;
26756;SDS011;23848;49.798;10.228;2024-03-07T01:11:11;19.08;;;10.88;;
26756;SDS011;23848;49.798;10.228;2024-03-07T01:13:40;20.80;;;11.25;;
26756;SDS011;23848;49.798;10.228;2024-03-07T01:16:09;19.48;;;10.82;;
26756;SDS011;23848;49.798;10.228;2024-03-07T01:18:37;20.05;;;11.10;;
26756;SDS011;23848;49.798;10.228;2024-03-07T01:21:06;19.20;;;10.77;;
26756;SDS011;23848;49.798;10.228;2024-03-07T01:23:36;19.70;;;11.40;;
26756;SDS011;23848;49.798;10.228;2024-03-07T01:26:05;20.17;;;11.60;;
26756;SDS011;23848;49.798;10.228;2024-03-07T01:28:34;18.02;;;10.35;;
26756;SDS011;23848;49.798;10.228;2024-03-07T01:31:03;21.52;;;12.40;;
26756;SDS011;23848;49.798;10.228;2024-03-07T01:33:34;20.05;;;11.10;;
26756;SDS011;23848;49.798;10.228;2024-03-07T01:36:03;17.23;;;10.45;;
26756;SDS011;23848;49.798;10.228;2024-03-07T01:38:32;19.45;;;10.45;;
26756;SDS011;23848;49.798;10.228;2024-03-07T01:41:02;20.42;;;10.75;;
26756;SDS011;23848;49.798;10.228;2024-03-07T01:43:31;20.23;;;11.10;;
26756;SDS011;23848;49.798;10.228;2024-03-07T01:45:59;20.58;;;10.23;;
26756;SDS011;23848;49.798;10.228;2024-03-07T01:48:28;19.98;;;10.55;;
26756;SDS011;23848;49.798;10.228;2024-03-07T01:50:58;16.80;;;10.48;;
26756;SDS011;23848;49.798;10.228;2024-03-07T01:53:27;19.35;;;10.18;;
26756;SDS011;23848;49.798;10.228;2024-03-07T01:55:56;18.10;;;10.68;;
26756;SDS011;23848;49.798;10.228;2024-03-07T01:58:25;18.35;;;10.55;;
26756;SDS011;23848;49.798;10.228;2024-03-07T02:00:54;17.95;;;10.85;;
26756;SDS011;23848;49.798;10.228;2024-03-07T02:03:22;17.50;;;10.20;;
26756;SDS011;23848;49.798;10.228;2024-03-07T02:05:51;19.83;;;10.63;;
26756;SDS011;23848;49.798;10.228;2024-03-07T02:08:19;19.70;;;10.77;;
26756;SDS011;23848;49.798;10.228;2024-03-07T02:10:48;17.80;;;10.98;;
26756;SDS011;23848;49.798;10.228;2024-03-07T02:13:16;18.45;;;9.88;;
26756;SDS011;23848;49.798;10.228;2024-03-07T02:15:46;16.40;;;10.50;;
26756;SDS011;23848;49.798;10.228;2024-03-07T02:18:15;16.23;;;9.95;;
26756;SDS011;23848;49.798;10.228;2024-03-07T02:20:45;19.42;;;9.95;;
26756;SDS011;23848;49.798;10.228;2024-03-07T02:23:13;17.25;;;10.38;;
26756;SDS011;23848;49.798;10.228;2024-03-07T02:25:42;16.33;;;9.57;;
26756;SDS011;23848;49.798;10.228;2024-03-07T02:28:11;13.88;;;8.98;;
26756;SDS011;23848;49.798;10.228;2024-03-07T02:30:39;18.95;;;9.57;;
26756;SDS011;23848;49.798;10.228;2024-03-07T02:33:07;16.13;;;9.15;;
26756;SDS011;23848;49.798;10.228;2024-03-07T02:35:36;16.08;;;9.27;;
26756;SDS011;23848;49.798;10.228;2024-03-07T02:38:07;17.90;;;9.57;;
26756;SDS011;23848;49.798;10.228;2024-03-07T02:40:36;16.33;;;9.43;;
26756;SDS011;23848;49.798;10.228;2024-03-07T02:43:04;15.40;;;8.90;;
26756;SDS011;23848;49.798;10.228;2024-03-07T02:45:33;17.27;;;10.02;;
26756;SDS011;23848;49.798;10.228;2024-03-07T02:48:02;16.27;;;8.38;;
26756;SDS011;23848;49.798;10.228;2024-03-07T02:50:32;17.55;;;9.57;;
26756;SDS011;23848;49.798;10.228;2024-03-07T02:53:00;16.27;;;9.70;;
26756;SDS011;23848;49.798;10.228;2024-03-07T02:55:31;17.55;;;9.70;;
26756;SDS011;23848;49.798;10.228;2024-03-07T02:58:00;15.25;;;9.23;;
26756;SDS011;23848;49.798;10.228;2024-03-07T03:00:28;19.27;;;9.38;;
26756;SDS011;23848;49.798;10.228;2024-03-07T03:02:57;16.08;;;9.55;;
26756;SDS011;23848;49.798;10.228;2024-03-07T03:05:25;17.58;;;8.43;;
26756;SDS011;23848;49.798;10.228;2024-03-07T03:07:54;18.67;;;9.77;;
26756;SDS011;23848;49.798;10.228;2024-03-07T03:10:23;19.80;;;10.27;;
26756;SDS011;23848;49.798;10.228;2024-03-07T03:12:57;12.25;;;6.82;;
26756;SDS011;23848;49.798;10.228;2024-03-07T03:15:27;18.50;;;10.38;;
26756;SDS011;23848;49.798;10.228;2024-03-07T03:17:57;17.40;;;10.05;;
26756;SDS011;23848;49.798;10.228;2024-03-07T03:20:27;15.52;;;9.15;;
26756;SDS011;23848;49.798;10.228;2024-03-07T03:23:02;16.63;;;8.80;;
26756;SDS011;23848;49.798;10.228;2024-03-07T03:25:45;15.82;;;9.05;;
26756;SDS011;23848;49.798;10.228;2024-03-07T03:28:17;14.95;;;9.25;;
26756;SDS011;23848;49.798;10.228;2024-03-07T03:30:48;14.80;;;8.85;;
26756;SDS011;23848;49.798;10.228;2024-03-07T03:33:17;16.30;;;9.27;;
26756;SDS011;23848;49.798;10.228;2024-03-07T03:35:47;15.05;;;8.98;;
26756;SDS011;23848;49.798;10.228;2024-03-07T03:38:16;14.85;;;9.30;;
26756;SDS011;23848;49.798;10.228;2024-03-07T03:40:46;16.38;;;9.15;;
26756;SDS011;23848;49.798;10.228;2024-03-07T03:43:14;15.05;;;8.57;;
26756;SDS011;23848;49.798;10.228;2024-03-07T03:45:44;14.82;;;9.55;;
26756;SDS011;23848;49.798;10.228;2024-03-07T03:48:14;14.02;;;8.60;;
26756;SDS011;23848;49.798;10.228;2024-03-07T03:50:43;10.65;;;6.97;;
26756;SDS011;23848;49.798;10.228;2024-03-07T03:53:13;13.13;;;7.88;;
26756;SDS011;23848;49.798;10.228;2024-03-07T03:55:41;11.55;;;7.95;;
26756;SDS011;23848;49.798;10.228;2024-03-07T03:58:09;14.63;;;8.80;;
26756;SDS011;23848;49.798;10.228;2024-03-07T04:00:38;16.25;;;9.13;;
26756;SDS011;23848;49.798;10.228;2024-03-07T04:03:08;12.10;;;7.78;;
26756;SDS011;23848;49.798;10.228;2024-03-07T04:05:36;13.65;;;7.60;;
26756;SDS011;23848;49.798;10.228;2024-03-07T04:08:04;12.27;;;7.90;;
26756;SDS011;23848;49.798;10.228;2024-03-07T04:10:33;14.45;;;8.90;;
26756;SDS011;23848;49.798;10.228;2024-03-07T04:13:02;14.35;;;8.05;;
26756;SDS011;23848;49.798;10.228;2024-03-07T04:15:30;17.48;;;10.45;;
26756;SDS011;23848;49.798;10.228;2024-03-07T04:18:03;14.15;;;9.02;;
26756;SDS011;23848;49.798;10.228;2024-03-07T04:20:33;15.32;;;9.48;;
26756;SDS011;23848;49.798;10.228;2024-03-07T04:23:01;15.27;;;9.43;;
26756;SDS011;23848;49.798;10.228;2024-03-07T04:25:30;15.23;;;8.95;;
26756;SDS011;23848;49.798;10.228;2024-03-07T04:27:59;15.05;;;8.85;;
26756;SDS011;23848;49.798;10.228;2024-03-07T04:30:27;15.27;;;8.90;;
26756;SDS011;23848;49.798;10.228;2024-03-07T04:32:56;16.13;;;8.90;;
26756;SDS011;23848;49.798;10.228;2024-03-07T04:35:25;16.80;;;9.55;;
26756;SDS011;23848;49.798;10.228;2024-03-07T04:37:55;14.60;;;8.05;;
26756;SDS011;23848;49.798;10.228;2024-03-07T04:40:23;15.65;;;8.93;;
26756;SDS011;23848;49.798;10.228;2024-03-07T04:42:52;16.38;;;8.85;;
26756;SDS011;23848;49.798;10.228;2024-03-07T04:45:20;19.52;;;10.25;;
26756;SDS011;23848;49.798;10.228;2024-03-07T04:47:48;16.52;;;9.48;;
26756;SDS011;23848;49.798;10.228;2024-03-07T04:50:17;15.95;;;8.65;;
26756;SDS011;23848;49.798;10.228;2024-03-07T04:52:46;19.50;;;11.23;;
26756;SDS011;23848;49.798;10.228;2024-03-07T04:55:17;19.70;;;10.93;;
26756;SDS011;23848;49.798;10.228;2024-03-07T04:57:46;28.90;;;15.43;;
26756;SDS011;23848;49.798;10.228;2024-03-07T05:00:14;18.33;;;11.00;;
26756;SDS011;23848;49.798;10.228;2024-03-07T05:02:47;22.40;;;12.07;;
26756;SDS011;23848;49.798;10.228;2024-03-07T05:05:16;21.05;;;11.50;;
26756;SDS011;23848;49.798;10.228;2024-03-07T05:07:50;16.45;;;9.90;;
26756;SDS011;23848;49.798;10.228;2024-03-07T05:10:20;17.35;;;9.55;;
26756;SDS011;23848;49.798;10.228;2024-03-07T05:12:49;23.52;;;11.60;;
26756;SDS011;23848;49.798;10.228;2024-03-07T05:15:17;23.55;;;13.10;;
26756;SDS011;23848;49.798;10.228;2024-03-07T05:17:46;17.17;;;9.82;;
26756;SDS011;23848;49.798;10.228;2024-03-07T05:20:14;18.73;;;10.00;;
26756;SDS011;23848;49.798;10.228;2024-03-07T05:22:43;19.45;;;10.48;;
26756;SDS011;23848;49.798;10.228;2024-03-07T05:25:18;16.38;;;9.75;;
26756;SDS011;23848;49.798;10.228;2024-03-07T05:27:48;12.88;;;8.27;;
26756;SDS011;23848;49.798;10.228;2024-03-07T05:30:18;15.55;;;9.13;;
26756;SDS011;23848;49.798;10.228;2024-03-07T05:32:47;15.65;;;9.18;;
26756;SDS011;23848;49.798;10.228;2024-03-07T05:35:16;15.45;;;9.43;;
26756;SDS011;23848;49.798;10.228;2024-03-07T05:37:47;13.82;;;7.90;;
26756;SDS011;23848;49.798;10.228;2024-03-07T05:40:18;13.38;;;8.55;;
26756;SDS011;23848;49.798;10.228;2024-03-07T05:42:48;13.20;;;8.07;;
26756;SDS011;23848;49.798;10.228;2024-03-07T05:45:16;13.07;;;7.57;;
26756;SDS011;23848;49.798;10.228;2024-03-07T05:47:45;13.23;;;7.80;;
26756;SDS011;23848;49.798;10.228;2024-03-07T05:50:15;14.00;;;8.35;;
26756;SDS011;23848;49.798;10.228;2024-03-07T05:52:45;13.35;;;8.00;;
26756;SDS011;23848;49.798;10.228;2024-03-07T05:55:15;12.82;;;7.97;;
26756;SDS011;23848;49.798;10.228;2024-03-07T05:57:45;14.35;;;8.18;;
26756;SDS011;23848;49.798;10.228;2024-03-07T06:00:16;13.52;;;8.48;;
26756;SDS011;23848;49.798;10.228;2024-03-07T06:02:54;13.00;;;7.53;;
26756;SDS011;23848;49.798;10.228;2024-03-07T06:05:23;12.88;;;7.78;;
26756;SDS011;23848;49.798;10.228;2024-03-07T06:07:55;12.55;;;7.32;;
26756;SDS011;23848;49.798;10.228;2024-03-07T06:10:24;15.80;;;8.23;;
26756;SDS011;23848;49.798;10.228;2024-03-07T06:12:53;12.98;;;7.25;;
26756;SDS011;23848;49.798;10.228;2024-03-07T06:15:37;11.68;;;7.63;;
26756;SDS011;23848;49.798;10.228;2024-03-07T06:18:05;13.98;;;7.43;;
26756;SDS011;23848;49.798;10.228;2024-03-07T06:20:37;12.52;;;7.28;;
26756;SDS011;23848;49.798;10.228;2024-03-07T06:23:07;16.02;;;8.30;;
26756;SDS011;23848;49.798;10.228;2024-03-07T06:25:38;12.43;;;7.97;;
26756;SDS011;23848;49.798;10.228;2024-03-07T06:28:14;14.30;;;8.15;;
26756;SDS011;23848;49.798;10.228;2024-03-07T06:30:44;16.25;;;8.38;;
26756;SDS011;23848;49.798;10.228;2024-03-07T06:33:13;15.68;;;7.97;;
26756;SDS011;23848;49.798;10.228;2024-03-07T06:35:43;14.98;;;7.90;;
26756;SDS011;23848;49.798;10.228;2024-03-07T06:38:11;16.17;;;8.57;;
26756;SDS011;23848;49.798;10.228;2024-03-07T06:40:40;18.77;;;10.02;;
26756;SDS011;23848;49.798;10.228;2024-03-07T06:43:09;14.05;;;8.02;;
26756;SDS011;23848;49.798;10.228;2024-03-07T06:45:38;11.95;;;7.47;;
26756;SDS011;23848;49.798;10.228;2024-03-07T06:48:09;12.35;;;7.18;;
26756;SDS011;23848;49.798;10.228;2024-03-07T06:50:39;13.13;;;7.90;;
26756;SDS011;23848;49.798;10.228;2024-03-07T06:53:07;14.80;;;7.88;;
26756;SDS011;23848;49.798;10.228;2024-03-07T06:55:36;13.85;;;8.85;;
26756;SDS011;23848;49.798;10.228;2024-03-07T06:58:05;13.73;;;7.13;;
26756;SDS011;23848;49.798;10.228;2024-03-07T07:00:34;15.27;;;8.00;;
26756;SDS011;23848;49.798;10.228;2024-03-07T07:03:04;15.02;;;8.65;;
26756;SDS011;23848;49.798;10.228;2024-03-07T07:05:35;15.15;;;8.32;;
26756;SDS011;23848;49.798;10.228;2024-03-07T07:08:04;14.25;;;7.82;;
26756;SDS011;23848;49.798;10.228;2024-03-07T07:10:33;15.48;;;8.57;;
26756;SDS011;23848;49.798;10.228;2024-03-07T07:13:03;12.95;;;7.45;;
26756;SDS011;23848;49.798;10.228;2024-03-07T07:15:32;12.07;;;7.30;;
26756;SDS011;23848;49.798;10.228;2024-03-07T07:18:01;15.15;;;8.43;;
26756;SDS011;23848;49.798;10.228;2024-03-07T07:20:30;10.32;;;6.55;;
26756;SDS011;23848;49.798;10.228;2024-03-07T07:23:02;12.15;;;6.80;;
26756;SDS011;23848;49.798;10.228;2024-03-07T07:25:31;13.23;;;7.40;;
26756;SDS011;23848;49.798;10.228;2024-03-07T07:28:00;13.18;;;7.38;;
26756;SDS011;23848;49.798;10.228;2024-03-07T07:30:34;13.63;;;7.43;;
26756;SDS011;23848;49.798;10.228;2024-03-07T07:33:03;15.30;;;8.25;;
26756;SDS011;23848;49.798;10.228;2024-03-07T07:35:31;15.10;;;7.95;;
26756;SDS011;23848;49.798;10.228;2024-03-07T07:38:02;14.02;;;7.88;;
26756;SDS011;23848;49.798;10.228;2024-03-07T07:40:33;12.20;;;7.47;;
26756;SDS011;23848;49.798;10.228;2024-03-07T07:43:03;14.07;;;8.15;;
26756;SDS011;23848;49.798;10.228;2024-03-07T07:45:33;14.07;;;7.57;;
26756;SDS011;23848;49.798;10.228;2024-03-07T07:48:03;13.38;;;7.63;;
26756;SDS011;23848;49.798;10.228;2024-03-07T07:50:31;14.23;;;7.72;;
26756;SDS011;23848;49.798;10.228;2024-03-07T07:53:03;13.60;;;8.02;;
26756;SDS011;23848;49.798;10.228;2024-03-07T07:55:35;12.93;;;8.73;;
26756;SDS011;23848;49.798;10.228;2024-03-07T07:58:04;15.45;;;8.55;;
26756;SDS011;23848;49.798;10.228;2024-03-07T08:00:33;17.85;;;7.93;;
26756;SDS011;23848;49.798;10.228;2024-03-07T08:03:04;13.82;;;7.75;;
26756;SDS011;23848;49.798;10.228;2024-03-07T08:05:34;15.93;;;8.45;;
26756;SDS011;23848;49.798;10.228;2024-03-07T08:08:05;13.88;;;8.27;;
26756;SDS011;23848;49.798;10.228;2024-03-07T08:10:35;13.80;;;7.78;;
26756;SDS011;23848;49.798;10.228;2024-03-07T08:13:04;14.40;;;7.75;;
26756;SDS011;23848;49.798;10.228;2024-03-07T08:15:34;16.27;;;8.55;;
26756;SDS011;23848;49.798;10.228;2024-03-07T08:18:02;16.10;;;8.57;;
26756;SDS011;23848;49.798;10.228;2024-03-07T08:20:36;15.48;;;8.32;;
26756;SDS011;23848;49.798;10.228;2024-03-07T08:23:07;14.07;;;8.23;;
26756;SDS011;23848;49.798;10.228;2024-03-07T08:25:37;16.70;;;8.32;;
26756;SDS011;23848;49.798;10.228;2024-03-07T08:28:07;17.05;;;9.95;;
26756;SDS011;23848;49.798;10.228;2024-03-07T08:30:36;16.15;;;8.73;;
26756;SDS011;23848;49.798;10.228;2024-03-07T08:33:05;17.30;;;9.40;;
26756;SDS011;23848;49.798;10.228;2024-03-07T08:35:34;14.40;;;8.05;;
26756;SDS011;23848;49.798;10.228;2024-03-07T08:38:04;14.85;;;8.48;;
26756;SDS011;23848;49.798;10.228;2024-03-07T08:40:39;13.77;;;7.72;;
26756;SDS011;23848;49.798;10.228;2024-03-07T08:43:08;15.23;;;8.57;;
26756;SDS011;23848;49.798;10.228;2024-03-07T08:45:37;15.85;;;8.43;;
26756;SDS011;23848;49.798;10.228;2024-03-07T08:48:06;19.20;;;10.45;;
26756;SDS011;23848;49.798;10.228;2024-03-07T08:50:36;19.95;;;10.93;;
26756;SDS011;23848;49.798;10.228;2024-03-07T08:53:07;18.27;;;10.07;;
26756;SDS011;23848;49.798;10.228;2024-03-07T08:55:37;16.15;;;8.85;;
26756;SDS011;23848;49.798;10.228;2024-03-07T08:58:06;15.40;;;8.85;;
26756;SDS011;23848;49.798;10.228;2024-03-07T09:00:35;19.00;;;8.93;;
26756;SDS011;23848;49.798;10.228;2024-03-07T09:03:05;16.20;;;9.25;;
26756;SDS011;23848;49.798;10.228;2024-03-07T09:05:41;17.08;;;9.70;;
26756;SDS011;23848;49.798;10.228;2024-03-07T09:08:09;17.67;;;9.13;;
26756;SDS011;23848;49.798;10.228;2024-03-07T09:10:39;16.27;;;9.27;;
26756;SDS011;23848;49.798;10.228;2024-03-07T09:13:15;16.63;;;10.07;;
26756;SDS011;23848;49.798;10.228;2024-03-07T09:15:43;15.02;;;9.73;;
26756;SDS011;23848;49.798;10.228;2024-03-07T09:18:14;17.13;;;9.63;;
26756;SDS011;23848;49.798;10.228;2024-03-07T09:20:43;15.75;;;8.60;;
26756;SDS011;23848;49.798;10.228;2024-03-07T09:23:12;17.65;;;9.82;;
26756;SDS011;23848;49.798;10.228;2024-03-07T09:25:43;16.45;;;9.73;;
26756;SDS011;23848;49.798;10.228;2024-03-07T09:28:12;17.35;;;9.93;;
26756;SDS011;23848;49.798;10.228;2024-03-07T09:30:41;14.88;;;7.95;;
26756;SDS011;23848;49.798;10.228;2024-03-07T09:33:12;17.50;;;8.75;;
26756;SDS011;23848;49.798;10.228;2024-03-07T09:35:43;16.25;;;9.00;;
26756;SDS011;23848;49.798;10.228;2024-03-07T09:38:14;14.90;;;8.75;;
26756;SDS011;23848;49.798;10.228;2024-03-07T09:40:44;16.92;;;9.18;;
26756;SDS011;23848;49.798;10.228;2024-03-07T09:43:15;16.30;;;9.10;;
26756;SDS011;23848;49.798;10.228;2024-03-07T09:45:46;16.55;;;8.40;;
26756;SDS011;23848;49.798;10.228;2024-03-07T09:48:15;17.00;;;9.93;;
26756;SDS011;23848;49.798;10.228;2024-03-07T09:50:47;16.30;;;8.75;;
26756;SDS011;23848;49.798;10.228;2024-03-07T09:53:20;16.23;;;9.52;;
26756;SDS011;23848;49.798;10.228;2024-03-07T09:55:53;15.60;;;9.45;;
26756;SDS011;23848;49.798;10.228;2024-03-07T09:58:22;17.38;;;9.15;;
26756;SDS011;23848;49.798;10.228;2024-03-07T10:00:53;15.13;;;9.60;;
26756;SDS011;23848;49.798;10.228;2024-03-07T10:03:22;14.82;;;8.63;;
26756;SDS011;23848;49.798;10.228;2024-03-07T10:05:58;16.05;;;8.65;;
26756;SDS011;23848;49.798;10.228;2024-03-07T10:08:27;13.80;;;8.18;;
26756;SDS011;23848;49.798;10.228;2024-03-07T10:10:58;15.05;;;9.07;;
26756;SDS011;23848;49.798;10.228;2024-03-07T10:13:27;15.90;;;9.18;;
26756;SDS011;23848;49.798;10.228;2024-03-07T10:15:56;12.90;;;7.63;;
26756;SDS011;23848;49.798;10.228;2024-03-07T10:18:28;15.13;;;8.43;;
26756;SDS011;23848;49.798;10.228;2024-03-07T10:20:58;14.60;;;8.68;;
26756;SDS011;23848;49.798;10.228;2024-03-07T10:23:30;13.75;;;8.15;;
26756;SDS011;23848;49.798;10.228;2024-03-07T10:26:01;13.55;;;8.50;;
26756;SDS011;23848;49.798;10.228;2024-03-07T10:28:46;12.07;;;8.20;;
26756;SDS011;23848;49.798;10.228;2024-03-07T10:31:28;15.48;;;8.75;;
26756;SDS011;23848;49.798;10.228;2024-03-07T10:34:00;15.30;;;8.52;;
26756;SDS011;23848;49.798;10.228;2024-03-07T10:38:59;15.77;;;8.50;;
26756;SDS011;23848;49.798;10.228;2024-03-07T10:41:42;14.45;;;8.27;;
26756;SDS011;23848;49.798;10.228;2024-03-07T10:44:17;14.52;;;7.80;;
26756;SDS011;23848;49.798;10.228;2024-03-07T10:46:52;12.52;;;7.63;;
26756;SDS011;23848;49.798;10.228;2024-03-07T10:49:26;12.82;;;8.23;;
26756;SDS011;23848;49.798;10.228;2024-03-07T10:52:02;12.50;;;7.32;;
26756;SDS011;23848;49.798;10.228;2024-03-07T10:54:42;13.10;;;7.22;;
26756;SDS011;23848;49.798;10.228;2024-03-07T10:57:41;13.70;;;7.93;;
26756;SDS011;23848;49.798;10.228;2024-03-07T11:00:21;12.75;;;8.23;;
26756;SDS011;23848;49.798;10.228;2024-03-07T11:03:03;14.10;;;7.65;;
26756;SDS011;23848;49.798;10.228;2024-03-07T11:05:37;13.65;;;7.65;;
26756;SDS011;23848;49.798;10.228;2024-03-07T11:08:10;15.68;;;7.80;;
26756;SDS011;23848;49.798;10.228;2024-03-07T11:10:41;14.63;;;8.48;;
26756;SDS011;23848;49.798;10.228;2024-03-07T11:13:15;12.20;;;7.20;;
26756;SDS011;23848;49.798;10.228;2024-03-07T11:15:47;12.25;;;6.32;;
26756;SDS011;23848;49.798;10.228;2024-03-07T11:18:25;13.63;;;7.45;;
26756;SDS011;23848;49.798;10.228;2024-03-07T11:20:55;13.30;;;7.63;;
26756;SDS011;23848;49.798;10.228;2024-03-07T11:23:26;13.55;;;7.32;;
26756;SDS011;23848;49.798;10.228;2024-03-07T11:26:03;12.25;;;7.43;;
26756;SDS011;23848;49.798;10.228;2024-03-07T11:28:36;11.68;;;7.10;;
26756;SDS011;23848;49.798;10.228;2024-03-07T11:31:09;11.75;;;7.00;;
26756;SDS011;23848;49.798;10.228;2024-03-07T11:33:40;11.20;;;7.20;;
26756;SDS011;23848;49.798;10.228;2024-03-07T11:36:12;12.75;;;7.43;;
26756;SDS011;23848;49.798;10.228;2024-03-07T11:38:48;10.65;;;6.70;;
26756;SDS011;23848;49.798;10.228;2024-03-07T11:41:21;11.18;;;6.78;;
26756;SDS011;23848;49.798;10.228;2024-03-07T11:43:53;11.45;;;6.80;;
26756;SDS011;23848;49.798;10.228;2024-03-07T11:46:26;14.52;;;9.20;;
26756;SDS011;23848;49.798;10.228;2024-03-07T11:48:58;11.93;;;6.85;;
26756;SDS011;23848;49.798;10.228;2024-03-07T11:51:27;10.60;;;6.72;;
26756;SDS011;23848;49.798;10.228;2024-03-07T11:53:56;12.50;;;7.10;;
26756;SDS011;23848;49.798;10.228;2024-03-07T11:56:25;10.75;;;6.63;;
26756;SDS011;23848;49.798;10.228;2024-03-07T11:58:56;12.48;;;6.28;;
26756;SDS011;23848;49.798;10.228;2024-03-07T12:01:26;12.60;;;6.68;;
26756;SDS011;23848;49.798;10.228;2024-03-07T12:03:57;11.40;;;6.38;;
26756;SDS011;23848;49.798;10.228;2024-03-07T12:06:25;11.50;;;6.32;;
26756;SDS011;23848;49.798;10.228;2024-03-07T12:08:56;15.30;;;7.13;;
26756;SDS011;23848;49.798;10.228;2024-03-07T12:11:25;10.85;;;6.78;;
26756;SDS011;23848;49.798;10.228;2024-03-07T12:13:55;12.10;;;6.07;;
26756;SDS011;23848;49.798;10.228;2024-03-07T12:16:25;10.68;;;5.57;;
26756;SDS011;23848;49.798;10.228;2024-03-07T12:18:56;11.90;;;6.13;;
26756;SDS011;23848;49.798;10.228;2024-03-07T12:21:24;11.23;;;6.90;;
26756;SDS011;23848;49.798;10.228;2024-03-07T12:23:54;10.23;;;5.70;;
26756;SDS011;23848;49.798;10.228;2024-03-07T12:26:23;9.95;;;6.05;;
26756;SDS011;23848;49.798;10.228;2024-03-07T12:28:52;10.05;;;6.05;;
26756;SDS011;23848;49.798;10.228;2024-03-07T12:31:22;9.02;;;5.13;;
26756;SDS011;23848;49.798;10.228;2024-03-07T12:33:51;9.23;;;5.60;;
26756;SDS011;23848;49.798;10.228;2024-03-07T12:36:20;11.27;;;5.28;;
26756;SDS011;23848;49.798;10.228;2024-03-07T12:39:00;10.25;;;5.80;;
26756;SDS011;23848;49.798;10.228;2024-03-07T12:41:35;10.05;;;6.18;;
26756;SDS011;23848;49.798;10.228;2024-03-07T12:44:04;12.80;;;6.45;;
26756;SDS011;23848;49.798;10.228;2024-03-07T12:49:12;12.00;;;5.65;;
26756;SDS011;23848;49.798;10.228;2024-03-07T12:51:42;11.63;;;6.30;;
26756;SDS011;23848;49.798;10.228;2024-03-07T12:54:10;10.77;;;6.13;;
26756;SDS011;23848;49.798;10.228;2024-03-07T12:56:39;9.10;;;5.93;;
26756;SDS011;23848;49.798;10.228;2024-03-07T12:59:07;10.70;;;5.38;;
26756;SDS011;23848;49.798;10.228;2024-03-07T13:01:38;10.15;;;5.32;;
26756;SDS011;23848;49.798;10.228;2024-03-07T13:04:11;11.32;;;5.88;;
26756;SDS011;23848;49.798;10.228;2024-03-07T13:06:40;10.93;;;5.50;;
26756;SDS011;23848;49.798;10.228;2024-03-07T13:09:09;10.45;;;5.03;;
26756;SDS011;23848;49.798;10.228;2024-03-07T13:11:38;10.45;;;5.68;;
26756;SDS011;23848;49.798;10.228;2024-03-07T13:14:07;12.60;;;5.53;;
26756;SDS011;23848;49.798;10.228;2024-03-07T13:16:36;10.15;;;5.72;;
26756;SDS011;23848;49.798;10.228;2024-03-07T13:19:05;9.75;;;5.85;;
26756;SDS011;23848;49.798;10.228;2024-03-07T13:21:34;8.95;;;5.45;;
26756;SDS011;23848;49.798;10.228;2024-03-07T13:24:02;10.20;;;5.97;;
26756;SDS011;23848;49.798;10.228;2024-03-07T13:26:32;9.32;;;5.10;;
26756;SDS011;23848;49.798;10.228;2024-03-07T13:29:00;9.65;;;5.82;;
26756;SDS011;23848;49.798;10.228;2024-03-07T13:31:28;8.55;;;5.57;;
26756;SDS011;23848;49.798;10.228;2024-03-07T13:33:57;10.35;;;5.68;;
26756;SDS011;23848;49.798;10.228;2024-03-07T13:36:30;9.80;;;4.97;;
26756;SDS011;23848;49.798;10.228;2024-03-07T13:38:58;10.13;;;6.15;;
26756;SDS011;23848;49.798;10.228;2024-03-07T13:41:26;9.90;;;5.32;;
26756;SDS011;23848;49.798;10.228;2024-03-07T13:43:56;9.15;;;5.20;;
26756;SDS011;23848;49.798;10.228;2024-03-07T13:46:26;10.40;;;5.13;;
26756;SDS011;23848;49.798;10.228;2024-03-07T13:48:55;8.93;;;5.88;;
26756;SDS011;23848;49.798;10.228;2024-03-07T13:51:35;10.52;;;5.88;;
26756;SDS011;23848;49.798;10.228;2024-03-07T13:54:05;9.30;;;4.95;;
26756;SDS011;23848;49.798;10.228;2024-03-07T13:56:54;7.53;;;4.95;;
26756;SDS011;23848;49.798;10.228;2024-03-07T13:59:43;10.45;;;5.22;;
26756;SDS011;23848;49.798;10.228;2024-03-07T14:02:46;10.07;;;6.13;;
26756;SDS011;23848;49.798;10.228;2024-03-07T14:05:53;9.50;;;5.10;;
26756;SDS011;23848;49.798;10.228;2024-03-07T14:08:37;10.07;;;5.10;;
26756;SDS011;23848;49.798;10.228;2024-03-07T14:11:41;10.48;;;5.43;;
26756;SDS011;23848;49.798;10.228;2024-03-07T14:17:48;8.63;;;4.72;;
26756;SDS011;23848;49.798;10.228;2024-03-07T14:20:39;9.80;;;5.72;;
26756;SDS011;23848;49.798;10.228;2024-03-07T14:23:38;11.07;;;5.53;;
26756;SDS011;23848;49.798;10.228;2024-03-07T14:26:38;10.02;;;6.05;;
26756;SDS011;23848;49.798;10.228;2024-03-07T14:29:31;10.25;;;5.57;;
26756;SDS011;23848;49.798;10.228;2024-03-07T14:32:09;9.10;;;5.25;;
26756;SDS011;23848;49.798;10.228;2024-03-07T14:34:45;10.32;;;5.90;;
26756;SDS011;23848;49.798;10.228;2024-03-07T14:37:22;10.88;;;5.07;;
26756;SDS011;23848;49.798;10.228;2024-03-07T14:39:53;11.88;;;5.28;;
26756;SDS011;23848;49.798;10.228;2024-03-07T14:42:37;10.88;;;6.00;;
26756;SDS011;23848;49.798;10.228;2024-03-07T14:45:11;10.70;;;5.90;;
26756;SDS011;23848;49.798;10.228;2024-03-07T14:47:43;12.82;;;7.00;;
26756;SDS011;23848;49.798;10.228;2024-03-07T14:50:14;14.27;;;7.95;;